Time;durP1;ratioP1;P1;durP2;ratioP2;P2;SDS_P1;SDS_P2;PMS_P1;PMS_P2;Temp;Humidity;BMP_temperature;BMP_pressure;BME280_temperature;BME280_humidity;BME280_pressure;Samples;Min_cycle;Max_cycle;Signal;HPM_P1;HPM_P2
2021/07/04 00:01:14;;;;;;;6.72;4.57;;;;;;;19.85;66.07;99962.31;5045288;28;20101;-75
2021/07/04 00:03:39;;;;;;;6.50;4.38;;;;;;;19.82;65.85;99944.00;5053161;28;20090;-75
2021/07/04 00:06:05;;;;;;;5.10;4.30;;;;;;;20.11;65.81;99953.34;5053045;28;20479;-75
2021/07/04 00:08:33;;;;;;;7.95;4.30;;;;;;;20.07;65.84;99942.03;5044965;28;20018;-76
2021/07/04 00:11:06;;;;;;;6.47;4.40;;;;;;;20.08;66.52;99949.00;5044048;28;20040;-73
2021/07/04 00:13:32;;;;;;;6.20;4.40;;;;;;;20.20;66.04;99943.63;5045552;28;20029;-75
2021/07/04 00:15:59;;;;;;;5.85;4.82;;;;;;;20.09;66.39;99948.13;5051712;28;20045;-77
2021/07/04 00:18:28;;;;;;;7.03;4.85;;;;;;;20.09;66.21;99921.94;5049372;28;20412;-75
2021/07/04 00:20:56;;;;;;;7.40;4.53;;;;;;;19.92;66.69;99942.19;5049383;28;20079;-75
2021/07/04 00:23:23;;;;;;;5.00;4.32;;;;;;;20.05;66.05;99933.34;5052316;28;20092;-76
2021/07/04 00:25:49;;;;;;;7.25;4.57;;;;;;;20.00;66.74;99932.50;5051395;28;20100;-73
2021/07/04 00:28:15;;;;;;;5.22;4.30;;;;;;;19.85;65.62;99931.78;5040788;28;20442;-76
2021/07/04 00:30:41;;;;;;;5.28;4.47;;;;;;;20.17;65.25;99938.41;5062787;28;20104;-73
2021/07/04 00:33:08;;;;;;;5.68;4.47;;;;;;;20.38;64.18;99941.69;5059946;28;20052;-73
2021/07/04 00:35:34;;;;;;;5.20;4.35;;;;;;;20.39;64.76;99938.19;5042553;28;20122;-75
2021/07/04 00:38:01;;;;;;;6.18;4.25;;;;;;;20.08;64.63;99912.31;5060767;28;20029;-75
2021/07/04 00:40:27;;;;;;;5.28;4.40;;;;;;;20.02;64.50;99928.97;5056363;28;20084;-72
2021/07/04 00:42:53;;;;;;;5.85;4.35;;;;;;;20.04;64.65;99916.72;5067574;28;20035;-69
2021/07/04 00:45:25;;;;;;;5.53;4.13;;;;;;;20.12;64.76;99905.31;5062994;28;20021;-75
2021/07/04 00:47:52;;;;;;;5.35;4.55;;;;;;;20.27;65.08;99922.59;5066330;28;20036;-71
2021/07/04 00:50:20;;;;;;;8.30;4.43;;;;;;;20.36;63.84;99922.47;5063447;28;20025;-72
2021/07/04 00:52:46;;;;;;;5.18;3.78;;;;;;;20.19;63.45;99914.84;5064892;28;20028;-70
2021/07/04 00:55:14;;;;;;;4.65;4.07;;;;;;;20.24;63.87;99917.38;5065178;28;20028;-72
2021/07/04 00:57:40;;;;;;;4.93;4.38;;;;;;;20.20;64.31;99927.91;5040046;28;20497;-72
2021/07/04 01:00:09;;;;;;;5.20;4.00;;;;;;;19.17;67.03;99921.84;5067828;28;20037;-71
2021/07/04 01:02:35;;;;;;;5.23;4.13;;;;;;;18.71;68.67;99903.81;5075150;28;20423;-77
2021/07/04 01:05:00;;;;;;;7.05;4.47;;;;;;;18.66;69.25;99897.72;5068213;28;20262;-74
2021/07/04 01:07:26;;;;;;;6.50;4.03;;;;;;;18.56;69.74;99913.44;5082719;28;20051;-70
2021/07/04 01:09:53;;;;;;;4.90;4.38;;;;;;;18.32;70.33;99901.38;5054435;28;20079;-70
2021/07/04 01:12:19;;;;;;;5.60;4.95;;;;;;;18.36;69.77;99876.09;5053767;28;20017;-69
2021/07/04 01:14:44;;;;;;;5.18;4.50;;;;;;;18.58;69.72;99916.09;5058786;28;20455;-76
2021/07/04 01:17:10;;;;;;;9.52;4.80;;;;;;;18.22;70.98;99900.53;5052552;28;20040;-78
2021/07/04 01:19:36;;;;;;;7.85;4.90;;;;;;;18.10;71.19;99918.84;5053405;28;20032;-71
2021/07/04 01:22:03;;;;;;;5.47;4.72;;;;;;;18.12;71.69;99911.91;5062875;28;20453;-77
2021/07/04 01:24:28;;;;;;;7.85;5.15;;;;;;;18.08;71.79;99910.16;5047820;28;20128;-73
2021/07/04 01:26:54;;;;;;;6.60;5.38;;;;;;;18.17;71.92;99928.44;5054278;28;20119;-72
2021/07/04 01:29:20;;;;;;;5.78;5.07;;;;;;;18.26;71.17;99923.16;5052291;28;20020;-70
2021/07/04 01:31:46;;;;;;;8.55;5.60;;;;;;;18.26;70.81;99904.00;5051902;28;20112;-70
2021/07/04 01:34:11;;;;;;;7.18;4.82;;;;;;;18.48;70.62;99919.59;5062063;28;20743;-73
2021/07/04 01:36:38;;;;;;;6.15;5.55;;;;;;;18.73;69.60;99920.38;5051471;28;20053;-72
2021/07/04 01:39:05;;;;;;;8.43;4.82;;;;;;;19.02;68.51;99929.81;5052578;28;20028;-73
2021/07/04 01:41:33;;;;;;;6.80;5.03;;;;;;;19.21;67.85;99931.41;5049638;28;20060;-73
2021/07/04 01:43:58;;;;;;;6.28;5.00;;;;;;;19.30;67.39;99919.13;5069791;28;20027;-73
2021/07/04 01:46:24;;;;;;;6.05;4.95;;;;;;;19.53;66.60;99942.53;5073846;28;20099;-75
2021/07/04 01:48:49;;;;;;;5.95;4.88;;;;;;;19.37;66.03;99897.28;5055254;28;20472;-73
2021/07/04 01:51:15;;;;;;;5.55;5.05;;;;;;;19.75;65.75;99942.31;5077126;28;22290;-72
2021/07/04 01:53:40;;;;;;;5.70;5.10;;;;;;;19.79;65.16;99946.63;5073772;28;20099;-72
2021/07/04 01:56:07;;;;;;;8.20;4.97;;;;;;;19.97;65.15;99958.75;5076679;28;20024;-71
2021/07/04 01:58:34;;;;;;;5.97;5.32;;;;;;;19.97;64.97;99948.25;5074326;28;20027;-72
2021/07/04 02:01:00;;;;;;;7.07;5.28;;;;;;;19.45;65.76;99937.34;5067454;28;20067;-73
2021/07/04 02:03:26;;;;;;;5.53;4.90;;;;;;;19.07;67.16;99941.97;5054160;28;20032;-70
2021/07/04 02:05:51;;;;;;;6.85;6.15;;;;;;;19.16;67.87;99956.72;5053954;28;20040;-76
2021/07/04 02:08:17;;;;;;;7.03;5.97;;;;;;;19.04;68.37;99964.66;5056634;28;20527;-72
2021/07/04 02:10:44;;;;;;;8.02;5.65;;;;;;;19.16;67.79;99953.25;5053641;28;20029;-71
2021/07/04 02:13:10;;;;;;;7.57;5.40;;;;;;;18.95;68.36;99955.13;5056041;28;20043;-71
2021/07/04 02:15:41;;;;;;;9.02;5.70;;;;;;;19.21;68.17;99960.19;5053182;28;20175;-73
2021/07/04 02:18:12;;;;;;;7.68;6.07;;;;;;;19.40;67.49;99949.59;5051171;28;20036;-70
2021/07/04 02:20:57;;;;;;;8.70;6.00;;;;;;;19.29;67.01;99918.28;5050843;28;20023;-75
2021/07/04 02:23:24;;;;;;;7.50;5.63;;;;;;;19.54;66.85;99960.81;5050823;28;20033;-71
2021/07/04 02:25:50;;;;;;;6.97;5.68;;;;;;;19.69;66.58;99972.94;5036901;28;20047;-71
2021/07/04 02:28:19;;;;;;;6.30;5.70;;;;;;;19.38;67.13;99977.53;5050138;28;20039;-70
2021/07/04 02:30:45;;;;;;;7.78;6.97;;;;;;;18.88;69.37;99977.81;5050677;28;20100;-71
2021/07/04 02:33:13;;;;;;;7.78;6.53;;;;;;;18.65;70.10;99979.66;5050967;28;20031;-73
2021/07/04 02:35:41;;;;;;;7.05;6.18;;;;;;;18.92;69.24;99970.84;5032727;28;20155;-71
2021/07/04 02:38:07;;;;;;;8.30;6.40;;;;;;;18.98;68.76;99946.38;5050755;28;20110;-76
2021/07/04 02:40:34;;;;;;;8.43;6.47;;;;;;;19.33;68.12;99979.31;5050658;28;20067;-70
2021/07/04 02:43:04;;;;;;;12.27;6.35;;;;;;;19.23;68.97;99974.13;5050447;28;20028;-72
2021/07/04 02:45:30;;;;;;;10.10;6.82;;;;;;;18.76;70.68;99998.78;5050584;28;20533;-74
2021/07/04 02:47:56;;;;;;;8.38;6.35;;;;;;;18.49;71.14;99976.22;5050757;28;20048;-70
2021/07/04 02:50:22;;;;;;;7.28;6.57;;;;;;;18.71;70.97;99984.84;5050822;28;20092;-75
2021/07/04 02:52:52;;;;;;;8.77;6.43;;;;;;;18.73;71.00;99981.38;5032529;28;20427;-73
2021/07/04 02:55:19;;;;;;;7.15;6.35;;;;;;;18.41;71.22;99952.75;5049905;28;20032;-73
2021/07/04 02:57:46;;;;;;;7.40;6.70;;;;;;;18.12;72.94;99998.09;5050568;28;20082;-74
2021/07/04 03:00:15;;;;;;;7.35;6.55;;;;;;;18.05;72.82;99978.09;5053766;28;20035;-73
2021/07/04 03:02:41;;;;;;;8.00;6.70;;;;;;;17.90;74.30;100003.31;5074136;28;20029;-76
2021/07/04 03:05:07;;;;;;;9.02;7.25;;;;;;;17.75;75.42;99995.50;5056267;28;20513;-75
2021/07/04 03:07:34;;;;;;;8.07;6.45;;;;;;;17.49;75.90;99991.13;5052706;28;20036;-77
2021/07/04 03:10:00;;;;;;;10.02;7.35;;;;;;;17.63;76.12;99992.00;5073523;28;20475;-74
2021/07/04 03:12:27;;;;;;;10.55;6.85;;;;;;;17.63;75.43;99967.63;5074331;28;20030;-74
2021/07/04 03:14:52;;;;;;;14.20;7.35;;;;;;;17.83;75.31;99988.53;5074084;28;20033;-77
2021/07/04 03:17:17;;;;;;;9.50;6.90;;;;;;;18.07;74.49;99997.25;5059893;28;20489;-74
2021/07/04 03:19:43;;;;;;;10.45;7.20;;;;;;;17.77;73.90;99949.38;5073851;28;20089;-73
2021/07/04 03:22:09;;;;;;;10.70;6.85;;;;;;;18.37;73.00;100005.91;5073615;28;20031;-75
2021/07/04 03:24:34;;;;;;;8.70;6.20;;;;;;;18.54;72.71;99998.88;5072505;28;20116;-74
2021/07/04 03:27:00;;;;;;;7.38;6.60;;;;;;;18.45;71.56;99967.53;5073870;28;20112;-73
2021/07/04 03:29:25;;;;;;;8.55;6.75;;;;;;;18.80;71.43;99999.63;5074096;28;20071;-73
2021/07/04 03:31:51;;;;;;;6.85;6.13;;;;;;;19.05;70.48;100008.25;5073816;28;20020;-72
2021/07/04 03:34:17;;;;;;;7.05;6.35;;;;;;;18.75;70.64;99968.28;5073431;28;20060;-75
2021/07/04 03:36:42;;;;;;;8.15;6.55;;;;;;;18.87;70.46;100014.44;5073850;28;20029;-73
2021/07/04 03:39:08;;;;;;;10.13;6.97;;;;;;;18.46;71.50;100018.06;5073174;28;20502;-76
2021/07/04 03:41:34;;;;;;;7.15;6.43;;;;;;;18.32;72.06;100018.06;5072571;28;20131;-73
2021/07/04 03:44:00;;;;;;;7.82;6.88;;;;;;;18.07;72.56;100015.53;5073164;28;20024;-72
2021/07/04 03:46:27;;;;;;;8.45;6.10;;;;;;;18.19;72.67;100010.25;5051860;28;20028;-73
2021/07/04 03:48:52;;;;;;;7.97;6.90;;;;;;;18.31;72.85;100005.91;5067246;28;20099;-73
2021/07/04 03:51:18;;;;;;;9.77;6.60;;;;;;;18.26;72.57;99998.94;5073210;28;20176;-73
2021/07/04 03:53:43;;;;;;;8.23;6.30;;;;;;;18.27;72.49;100008.50;5055345;28;20108;-73
2021/07/04 03:56:09;;;;;;;7.35;6.47;;;;;;;18.36;72.55;100005.00;5073227;28;20052;-73
2021/07/04 03:58:34;;;;;;;11.20;7.30;;;;;;;18.30;72.58;100001.56;5071673;28;20511;-73
2021/07/04 04:01:00;;;;;;;8.82;6.63;;;;;;;18.34;72.17;100004.13;5073050;28;20047;-72
2021/07/04 04:03:25;;;;;;;7.28;6.53;;;;;;;18.30;72.73;100002.41;5073322;28;20550;-74
2021/07/04 04:05:51;;;;;;;8.20;6.22;;;;;;;18.36;71.80;99983.25;5073488;28;20085;-73
2021/07/04 04:08:16;;;;;;;10.02;6.47;;;;;;;18.55;71.50;100005.81;5054564;28;20483;-72
2021/07/04 04:10:42;;;;;;;7.30;6.57;;;;;;;18.65;71.45;100016.25;5071462;28;20031;-73
2021/07/04 04:13:07;;;;;;;8.93;6.53;;;;;;;18.64;71.44;100004.06;5054704;28;20095;-76
2021/07/04 04:15:33;;;;;;;7.10;6.40;;;;;;;18.65;71.36;100005.81;5072688;28;20035;-77
2021/07/04 04:17:58;;;;;;;7.50;6.13;;;;;;;18.51;72.09;100019.78;5071777;28;20115;-76
2021/07/04 04:20:25;;;;;;;7.05;6.35;;;;;;;18.35;72.37;100032.00;5055136;28;20021;-74
2021/07/04 04:22:50;;;;;;;7.35;6.20;;;;;;;18.54;72.00;100032.84;5072869;28;20020;-76
2021/07/04 04:25:16;;;;;;;6.88;6.07;;;;;;;18.75;72.60;100028.41;5072525;28;20034;-76
2021/07/04 04:27:41;;;;;;;11.43;7.00;;;;;;;18.83;72.42;100017.91;5072719;28;20032;-73
2021/07/04 04:30:08;;;;;;;8.25;6.97;;;;;;;18.98;72.33;100028.38;5072632;28;20108;-77
2021/07/04 04:32:34;;;;;;;7.78;6.97;;;;;;;18.80;70.53;99984.81;5071133;28;20021;-73
2021/07/04 04:34:59;;;;;;;7.32;6.63;;;;;;;18.96;70.33;99995.25;5071012;28;20085;-77
2021/07/04 04:37:25;;;;;;;7.65;6.88;;;;;;;19.12;70.27;100019.59;5071349;28;20035;-77
2021/07/04 04:39:51;;;;;;;9.07;7.10;;;;;;;19.20;70.52;100021.28;5086014;28;20410;-73
2021/07/04 04:42:17;;;;;;;8.93;7.00;;;;;;;19.28;71.16;100036.94;5061416;28;20484;-74
2021/07/04 04:44:43;;;;;;;9.95;6.93;;;;;;;19.36;71.69;100036.88;5087996;28;20051;-73
2021/07/04 04:47:08;;;;;;;8.13;7.32;;;;;;;19.37;72.18;100034.25;5084056;28;20101;-73
2021/07/04 04:49:34;;;;;;;8.43;7.50;;;;;;;19.37;72.66;100020.28;5078751;28;20067;-75
2021/07/04 04:52:00;;;;;;;8.13;7.30;;;;;;;19.50;72.35;100028.94;5085128;28;20032;-75
2021/07/04 04:54:26;;;;;;;13.15;7.18;;;;;;;19.38;72.67;100024.66;5085282;28;20039;-72
2021/07/04 04:56:51;;;;;;;9.52;7.18;;;;;;;19.34;72.76;100033.38;5087986;28;20028;-72
2021/07/04 04:59:16;;;;;;;7.88;6.75;;;;;;;19.21;72.98;100036.06;5078752;28;20119;-72
2021/07/04 05:01:44;;;;;;;8.13;6.85;;;;;;;19.46;72.41;100033.31;5087322;28;20048;-72
2021/07/04 05:04:09;;;;;;;7.68;6.10;;;;;;;19.55;70.56;100014.06;5083592;28;20480;-73
2021/07/04 05:06:35;;;;;;;5.78;5.25;;;;;;;19.67;69.61;99997.38;5087664;28;20112;-73
2021/07/04 05:09:02;;;;;;;9.90;6.20;;;;;;;19.96;70.64;100022.50;5085291;28;20471;-76
2021/07/04 05:11:27;;;;;;;7.32;5.72;;;;;;;19.98;69.48;100026.84;5085893;28;20059;-72
2021/07/04 05:13:53;;;;;;;7.68;6.45;;;;;;;19.91;69.73;100014.66;5087485;28;20078;-73
2021/07/04 05:16:19;;;;;;;7.03;5.85;;;;;;;20.09;69.74;100026.75;5075836;28;20040;-74
2021/07/04 05:18:45;;;;;;;6.90;6.10;;;;;;;20.20;69.29;100039.75;5071416;28;20105;-73
2021/07/04 05:21:10;;;;;;;7.78;5.97;;;;;;;20.33;68.39;100043.13;5071549;28;20061;-74
2021/07/04 05:23:36;;;;;;;6.90;6.30;;;;;;;20.42;68.49;100048.25;5071208;28;20056;-72
2021/07/04 05:26:01;;;;;;;9.23;6.07;;;;;;;20.47;68.96;100041.25;5070290;28;20028;-72
2021/07/04 05:28:30;;;;;;;8.52;5.88;;;;;;;20.42;67.82;100043.00;5071617;28;20025;-74
2021/07/04 05:30:56;;;;;;;7.25;5.68;;;;;;;20.59;69.28;100053.31;5071454;28;20021;-73
2021/07/04 05:33:22;;;;;;;6.50;5.68;;;;;;;20.66;66.76;100039.25;5068270;28;20032;-79
2021/07/04 05:35:48;;;;;;;7.63;5.88;;;;;;;20.61;65.58;100017.47;5070790;28;20483;-73
2021/07/04 05:38:19;;;;;;;8.32;5.53;;;;;;;20.77;66.40;100048.78;5071682;28;20025;-76
2021/07/04 05:40:46;;;;;;;6.75;5.35;;;;;;;20.59;65.19;99998.25;5071280;28;20024;-74
2021/07/04 05:43:12;;;;;;;6.22;5.50;;;;;;;20.77;65.57;100028.69;5070089;28;20036;-73
2021/07/04 05:45:37;;;;;;;8.50;6.03;;;;;;;20.90;64.88;100050.38;5070986;28;20132;-73
2021/07/04 05:48:04;;;;;;;8.68;5.90;;;;;;;21.01;65.76;100051.13;5053210;28;20025;-75
2021/07/04 05:50:30;;;;;;;5.82;4.97;;;;;;;21.09;65.25;100040.50;5071091;28;20021;-73
2021/07/04 05:52:55;;;;;;;7.03;5.20;;;;;;;21.01;65.99;100011.75;5070847;28;20036;-73
2021/07/04 05:55:22;;;;;;;7.00;5.28;;;;;;;21.44;65.68;100054.91;5065434;28;20540;-75
2021/07/04 05:57:48;;;;;;;8.23;4.97;;;;;;;21.26;65.17;100013.16;5056984;28;20028;-73
2021/07/04 06:00:14;;;;;;;6.00;5.40;;;;;;;21.42;65.66;100033.06;5067243;28;20029;-72
2021/07/04 06:02:40;;;;;;;8.15;5.53;;;;;;;21.62;66.07;100045.03;5072956;28;20024;-73
2021/07/04 06:05:06;;;;;;;7.95;5.55;;;;;;;21.80;64.65;100054.41;5066599;28;20461;-72
2021/07/04 06:07:34;;;;;;;5.38;4.88;;;;;;;21.76;62.20;100058.84;5071100;28;20024;-71
2021/07/04 06:10:00;;;;;;;5.88;5.28;;;;;;;21.86;61.60;100054.31;5070928;28;20411;-72
2021/07/04 06:12:25;;;;;;;7.88;5.30;;;;;;;21.93;63.74;100039.28;5071062;28;20051;-72
2021/07/04 06:14:51;;;;;;;5.78;4.88;;;;;;;22.11;62.04;100049.50;5070687;28;20442;-72
2021/07/04 06:17:16;;;;;;;5.82;4.40;;;;;;;22.17;59.46;100037.13;5068848;28;20120;-70
2021/07/04 06:19:42;;;;;;;8.70;4.90;;;;;;;22.22;62.16;100045.78;5071178;28;20029;-74
2021/07/04 06:22:07;;;;;;;5.13;4.57;;;;;;;21.99;60.47;99991.88;5070898;28;20385;-72
2021/07/04 06:24:33;;;;;;;5.68;4.40;;;;;;;21.89;61.53;99964.03;5070746;28;20028;-74
2021/07/04 06:26:58;;;;;;;5.78;4.60;;;;;;;22.20;59.88;99990.63;5071047;28;20036;-73
2021/07/04 06:29:24;;;;;;;6.45;4.85;;;;;;;22.60;59.73;100046.88;5070857;28;20059;-73
2021/07/04 06:31:49;;;;;;;6.45;4.70;;;;;;;22.62;60.59;100034.59;5069596;28;20033;-75
2021/07/04 06:34:15;;;;;;;9.27;7.03;;;;;;;22.76;60.08;100034.28;5070820;28;20032;-73
2021/07/04 06:36:40;;;;;;;10.07;6.47;;;;;;;22.80;59.09;100029.84;5073303;28;20135;-73
2021/07/04 06:39:06;;;;;;;5.60;4.30;;;;;;;22.85;58.75;100025.34;5072188;28;20024;-73
2021/07/04 06:41:31;;;;;;;5.90;4.32;;;;;;;;;;5074990;28;20032;-73
2021/07/04 06:44:00;;;;;;;5.75;4.38;;;;;;;22.98;58.81;100016.28;5075073;28;20083;-74
2021/07/04 06:46:25;;;;;;;6.80;4.28;;;;;;;23.03;59.02;100011.78;5074928;28;20484;-77
2021/07/04 06:48:51;;;;;;;4.35;3.90;;;;;;;23.11;57.56;100014.25;5074909;28;20162;-73
2021/07/04 06:51:16;;;;;;;5.07;4.03;;;;;;;22.94;57.33;99988.28;5073115;28;20029;-77
2021/07/04 06:53:42;;;;;;;5.47;4.10;;;;;;;22.96;58.27;99964.59;5074052;28;20028;-72
2021/07/04 06:56:08;;;;;;;5.13;3.90;;;;;;;23.29;57.38;100005.13;5071757;28;20037;-73
2021/07/04 06:58:34;;;;;;;5.90;3.60;;;;;;;23.34;55.49;100003.22;5073601;28;20035;-74
2021/07/04 07:01:00;;;;;;;5.60;3.90;;;;;;;23.39;56.88;99995.19;5076679;28;20048;-73
2021/07/04 07:03:26;;;;;;;5.20;3.92;;;;;;;23.42;54.09;99996.00;5078954;28;20513;-76
2021/07/04 07:05:51;;;;;;;4.95;3.60;;;;;;;23.39;53.48;99963.59;5091792;28;20446;-73
2021/07/04 07:08:16;;;;;;;5.93;3.58;;;;;;;23.55;53.00;99986.06;5087724;28;20048;-73
2021/07/04 07:10:42;;;;;;;5.38;3.35;;;;;;;23.77;53.19;99988.13;5076391;28;20064;-75
2021/07/04 07:13:07;;;;;;;5.93;3.55;;;;;;;23.95;55.78;99984.22;5074420;28;20021;-73
2021/07/04 07:15:33;;;;;;;5.20;3.47;;;;;;;24.07;54.86;99983.00;5082245;28;20041;-74
2021/07/04 07:17:59;;;;;;;6.15;3.63;;;;;;;23.92;55.02;99947.38;5080963;28;20028;-72
2021/07/04 07:20:25;;;;;;;3.60;3.30;;;;;;;24.22;53.04;99984.34;5079901;28;20475;-72
2021/07/04 07:22:50;;;;;;;6.93;3.80;;;;;;;24.21;55.79;99974.72;5077023;28;20036;-76
2021/07/04 07:25:17;;;;;;;4.63;3.00;;;;;;;24.30;50.71;99978.88;5074443;28;20078;-73
2021/07/04 07:27:42;;;;;;;3.72;2.70;;;;;;;24.39;48.41;99989.19;5074196;28;20130;-72
2021/07/04 07:30:11;;;;;;;4.70;2.70;;;;;;;24.36;50.02;99974.31;5055230;28;20036;-76
2021/07/04 07:32:37;;;;;;;3.58;3.08;;;;;;;24.50;50.43;99979.19;5074228;28;20049;-75
2021/07/04 07:35:04;;;;;;;4.65;3.45;;;;;;;24.48;51.82;99969.59;5056124;28;20040;-76
2021/07/04 07:37:30;;;;;;;3.28;2.90;;;;;;;24.27;51.52;99928.84;5074260;28;20028;-78
2021/07/04 07:39:55;;;;;;;3.13;2.67;;;;;;;24.52;50.06;99964.19;5074017;28;20108;-78
2021/07/04 07:42:21;;;;;;;3.83;3.20;;;;;;;24.52;49.89;99963.28;5073951;28;20035;-73
2021/07/04 07:44:46;;;;;;;3.80;3.00;;;;;;;24.73;51.90;99963.63;5073702;28;20028;-72
2021/07/04 07:47:13;;;;;;;3.78;3.17;;;;;;;24.77;51.80;99959.97;5071922;28;20511;-77
2021/07/04 07:49:39;;;;;;;5.68;3.45;;;;;;;24.87;53.53;99946.47;5067657;28;20040;-74
2021/07/04 07:52:04;;;;;;;5.10;3.08;;;;;;;24.88;50.68;99939.38;5052604;28;20032;-72
2021/07/04 07:54:31;;;;;;;6.68;3.10;;;;;;;24.76;47.54;99902.81;5071641;28;20626;-73
2021/07/04 07:56:56;;;;;;;4.63;2.95;;;;;;;25.00;49.54;99931.09;5053926;28;20450;-78
2021/07/04 07:59:22;;;;;;;3.70;3.20;;;;;;;25.13;51.18;99947.41;5051188;28;20055;-73
2021/07/04 08:01:49;;;;;;;7.32;2.70;;;;;;;25.18;47.66;99931.41;5054166;28;20059;-71
2021/07/04 08:04:15;;;;;;;3.90;3.10;;;;;;;25.29;50.00;99945.13;5052496;28;20502;-77
2021/07/04 08:06:40;;;;;;;4.45;2.85;;;;;;;25.18;46.91;99950.78;5062116;28;20032;-74
2021/07/04 08:09:06;;;;;;;2.97;2.45;;;;;;;25.26;48.70;99929.38;5056522;28;20104;-78
2021/07/04 08:11:32;;;;;;;5.43;3.10;;;;;;;25.29;46.63;99944.28;5058645;28;20029;-77
2021/07/04 08:13:58;;;;;;;4.53;2.90;;;;;;;25.11;48.77;99906.09;5054976;28;20025;-74
2021/07/04 08:16:24;;;;;;;5.07;3.30;;;;;;;25.50;46.83;99940.09;5017799;28;20581;-72
2021/07/04 08:18:50;;;;;;;3.20;2.67;;;;;;;25.44;46.06;99948.22;5014773;28;20042;-72
2021/07/04 08:21:15;;;;;;;3.85;3.15;;;;;;;25.54;48.45;99947.00;5010897;28;20049;-71
2021/07/04 08:23:41;;;;;;;4.03;3.40;;;;;;;25.47;49.42;99912.00;5015029;28;20487;-71
2021/07/04 08:26:07;;;;;;;4.43;3.40;;;;;;;25.32;47.13;99902.78;4998199;28;20494;-73
2021/07/04 08:28:33;;;;;;;3.80;3.40;;;;;;;25.47;48.68;99908.47;5015549;28;20030;-70
2021/07/04 08:30:58;;;;;;;6.45;3.50;;;;;;;25.90;47.61;99938.72;5020942;28;20063;-73
2021/07/04 08:33:24;;;;;;;4.13;3.30;;;;;;;25.84;47.69;99926.59;5030538;28;20090;-72
2021/07/04 08:35:49;;;;;;;4.55;3.30;;;;;;;26.19;48.60;99942.13;5029842;28;20060;-70
2021/07/04 08:38:15;;;;;;;6.50;3.60;;;;;;;25.95;48.37;99902.38;5031986;28;20029;-76
2021/07/04 08:40:40;;;;;;;5.43;3.55;;;;;;;26.18;46.91;99936.91;5033547;28;20040;-73
2021/07/04 08:43:06;;;;;;;4.07;3.15;;;;;;;26.16;45.53;99936.97;5014007;28;20116;-71
2021/07/04 08:45:37;;;;;;;4.88;3.45;;;;;;;26.11;48.10;99917.75;5031299;28;20029;-73
2021/07/04 08:48:03;;;;;;;7.35;3.20;;;;;;;25.93;45.37;99891.03;5044906;28;20518;-74
2021/07/04 08:50:28;;;;;;;5.65;2.75;;;;;;;26.10;44.02;99922.16;5072216;28;20025;-70
2021/07/04 08:52:54;;;;;;;3.90;3.00;;;;;;;26.27;46.09;99918.03;5071547;28;20545;-73
2021/07/04 08:55:19;;;;;;;4.45;2.75;;;;;;;26.16;42.29;99914.00;5072871;28;20103;-71
2021/07/04 08:57:45;;;;;;;6.75;2.90;;;;;;;26.39;43.91;99922.00;5062997;28;20107;-72
2021/07/04 09:00:16;;;;;;;3.65;2.60;;;;;;;26.44;43.33;99905.06;5073286;28;20036;-71
2021/07/04 09:02:43;;;;;;;7.72;3.10;;;;;;;26.80;45.71;99906.34;5045467;28;20645;-77
2021/07/04 09:05:11;;;;;;;4.15;2.60;;;;;;;26.25;42.04;99819.34;5032801;28;20032;-72
2021/07/04 09:07:39;;;;;;;3.90;3.00;;;;;;;26.90;46.98;99902.41;5051885;28;20514;-71
2021/07/04 09:10:09;;;;;;;8.52;3.10;;;;;;;26.90;43.52;99899.75;5035728;28;20065;-74
2021/07/04 09:12:49;;;;;;;4.03;2.40;;;;;;;27.18;43.89;99911.03;5036145;28;20040;-77
2021/07/04 09:15:17;;;;;;;3.67;2.80;;;;;;;27.25;41.93;99888.66;5036324;28;20013;-73
2021/07/04 09:17:54;;;;;;;3.55;2.47;;;;;;;27.11;40.78;99897.19;5034716;28;20030;-80
2021/07/04 09:20:30;;;;;;;5.43;2.75;;;;;;;27.07;42.30;99885.00;5034431;28;20070;-74
2021/07/04 09:22:57;;;;;;;3.33;2.80;;;;;;;27.09;43.71;99893.72;5035936;28;20456;-73
2021/07/04 09:25:27;;;;;;;2.80;2.50;;;;;;;27.05;41.50;99882.38;5054013;28;20020;-73
2021/07/04 09:28:07;;;;;;;5.47;2.85;;;;;;;27.08;42.99;99839.03;5038257;28;20052;-71
2021/07/04 09:30:35;;;;;;;3.90;2.60;;;;;;;27.17;41.60;99870.44;5033090;28;20100;-72
2021/07/04 09:33:15;;;;;;;3.83;2.80;;;;;;;27.41;41.68;99880.94;5032449;28;20052;-77
2021/07/04 09:35:50;;;;;;;3.40;2.70;;;;;;;27.38;41.52;99889.00;5033214;28;20033;-73
2021/07/04 09:38:17;;;;;;;3.90;3.10;;;;;;;27.57;41.92;99889.97;5034515;28;20459;-77
2021/07/04 09:40:43;;;;;;;4.40;3.15;;;;;;;27.41;44.72;99871.19;5034110;28;20092;-75
2021/07/04 09:43:16;;;;;;;5.28;3.20;;;;;;;27.56;42.38;99840.50;5034225;28;20040;-71
2021/07/04 09:45:55;;;;;;;4.80;3.22;;;;;;;27.83;41.86;99879.16;5034355;28;20021;-72
2021/07/04 09:48:30;;;;;;;4.35;3.13;;;;;;;27.94;41.74;99871.59;5034692;28;20560;-75
2021/07/04 09:50:57;;;;;;;3.40;2.50;;;;;;;27.70;41.20;99865.56;5031519;28;20029;-75
2021/07/04 09:53:31;;;;;;;3.72;2.58;;;;;;;27.65;41.65;99859.59;5032025;28;20029;-69
2021/07/04 09:56:15;;;;;;;5.68;3.10;;;;;;;27.42;41.45;99874.72;5035013;28;20022;-76
2021/07/04 09:58:44;;;;;;;4.07;3.03;;;;;;;27.90;41.49;99872.63;5031981;28;20444;-73
2021/07/04 10:01:10;;;;;;;4.93;2.93;;;;;;;28.11;42.12;99859.38;5043257;28;20045;-78
2021/07/04 10:03:42;;;;;;;3.90;3.00;;;;;;;27.57;40.38;99866.09;5057530;28;20025;-84
2021/07/04 10:06:10;;;;;;;4.03;3.08;;;;;;;27.41;40.93;99855.28;5057425;28;20619;-74
2021/07/04 10:08:40;;;;;;;9.10;3.50;;;;;;;27.91;42.33;99858.44;5053712;28;20400;-72
2021/07/04 10:11:09;;;;;;;4.00;3.10;;;;;;;28.24;42.95;99834.00;5053407;28;20025;-72
2021/07/04 10:13:37;;;;;;;5.20;2.72;;;;;;;28.34;39.02;99855.66;5052844;28;20017;-73
2021/07/04 10:16:03;;;;;;;5.15;3.08;;;;;;;28.60;41.46;99858.84;5051669;28;20415;-72
2021/07/04 10:18:29;;;;;;;3.60;2.60;;;;;;;28.38;39.06;99842.16;5051517;28;20502;-70
2021/07/04 10:20:55;;;;;;;3.45;2.50;;;;;;;27.84;37.42;99819.84;5055366;28;20028;-73
2021/07/04 10:23:23;;;;;;;5.10;2.92;;;;;;;27.66;38.84;99803.84;5054075;28;20061;-73
2021/07/04 10:25:50;;;;;;;3.90;2.73;;;;;;;27.74;38.03;99830.91;5054524;28;20024;-72
2021/07/04 10:28:23;;;;;;;3.67;2.70;;;;;;;28.11;39.92;99841.66;5051728;28;20434;-71
2021/07/04 10:30:51;;;;;;;6.05;2.80;;;;;;;28.25;40.52;99825.94;5051575;28;20460;-72
2021/07/04 10:33:26;;;;;;;6.85;3.03;;;;;;;28.57;35.84;99849.25;5051582;28;20019;-72
2021/07/04 10:36:05;;;;;;;4.95;2.92;;;;;;;28.84;36.17;99841.75;5049241;28;20025;-72
2021/07/04 10:38:38;;;;;;;6.00;2.70;;;;;;;28.69;35.33;99837.22;5053974;28;20088;-74
2021/07/04 10:41:08;;;;;;;3.50;2.55;;;;;;;28.66;34.26;99818.72;5053879;28;20025;-70
2021/07/04 10:43:52;;;;;;;3.58;2.60;;;;;;;28.47;35.40;99834.69;5056764;28;20036;-71
2021/07/04 10:46:19;;;;;;;3.78;2.75;;;;;;;28.34;36.61;99842.41;5051325;28;20036;-72
2021/07/04 10:48:57;;;;;;;4.30;2.60;;;;;;;28.77;34.44;99808.47;5052702;28;20147;-74
2021/07/04 10:51:24;;;;;;;3.08;2.40;;;;;;;28.96;34.94;99834.13;5032417;28;20028;-74
2021/07/04 10:53:52;;;;;;;4.20;2.70;;;;;;;28.48;34.50;99833.75;5057037;28;20032;-74
2021/07/04 10:56:33;;;;;;;6.28;2.72;;;;;;;28.68;34.29;99827.53;5052619;28;20025;-73
2021/07/04 10:59:12;;;;;;;2.75;2.38;;;;;;;28.52;36.06;99840.63;5057628;28;20021;-74
2021/07/04 11:01:47;;;;;;;3.67;2.83;;;;;;;28.55;36.06;99833.38;5030740;28;20061;-74
2021/07/04 11:04:28;;;;;;;4.47;3.30;;;;;;;28.83;38.55;99829.41;5034574;28;20048;-75
2021/07/04 11:07:00;;;;;;;4.28;2.70;;;;;;;28.77;36.73;99789.88;5033313;28;20030;-73
2021/07/04 11:09:51;;;;;;;3.67;2.80;;;;;;;29.25;37.23;99821.16;5036727;28;20033;-73
2021/07/04 11:12:27;;;;;;;4.70;2.75;;;;;;;29.29;35.63;99822.75;5034960;28;20044;-73
2021/07/04 11:15:13;;;;;;;3.92;2.85;;;;;;;29.84;36.55;99819.00;5037907;28;20049;-71
2021/07/04 11:18:00;;;;;;;5.97;2.55;;;;;;;30.21;32.67;99805.47;5025139;28;20136;-70
2021/07/04 11:20:33;;;;;;;2.55;2.35;;;;;;;30.24;32.17;99808.84;5011338;28;20038;-71
2021/07/04 11:23:06;;;;;;;5.50;2.80;;;;;;;30.39;33.02;99807.13;4995896;28;20489;-73
2021/07/04 11:25:42;;;;;;;6.03;2.70;;;;;;;29.86;33.36;99783.38;4997507;28;20061;-74
2021/07/04 11:28:16;;;;;;;4.03;2.50;;;;;;;29.80;34.04;99815.63;4998276;28;20129;-69
2021/07/04 11:30:56;;;;;;;6.70;2.90;;;;;;;29.55;35.60;99813.44;4993543;28;20030;-72
2021/07/04 11:33:36;;;;;;;5.13;2.53;;;;;;;29.30;34.43;99822.69;4999158;28;20166;-73